Time;durP1;ratioP1;P1;durP2;ratioP2;P2;SDS_P1;SDS_P2;PMS_P1;PMS_P2;Temp;Humidity;BMP_temperature;BMP_pressure;BME280_temperature;BME280_humidity;BME280_pressure;Samples;Min_cycle;Max_cycle;Signal;HPM_P1;HPM_P2
2022/04/30 00:00:46;;;;;;;6.50;5.50;;;;;;;16.12;46.49;98433.72;8498555;27;20415;-75
2022/04/30 00:04:49;;;;;;;7.93;6.13;;;;;;;16.01;46.76;98439.56;8516587;27;20256;-75
2022/04/30 00:08:52;;;;;;;9.77;5.90;;;;;;;16.02;47.00;98436.88;8516167;27;20241;-75
2022/04/30 00:12:55;;;;;;;9.53;5.90;;;;;;;16.00;46.87;98437.91;8516190;27;20243;-75
2022/04/30 00:16:59;;;;;;;7.27;5.77;;;;;;;15.92;47.11;98434.91;8515329;27;20295;-75
2022/04/30 00:21:02;;;;;;;7.17;5.90;;;;;;;15.93;47.99;98433.97;8516012;27;20228;-76
2022/04/30 00:25:07;;;;;;;10.90;6.30;;;;;;;15.86;48.13;98419.56;8515759;27;20241;-75
2022/04/30 00:29:10;;;;;;;9.23;6.30;;;;;;;15.81;47.97;98417.25;8515691;27;20232;-75
2022/04/30 00:33:15;;;;;;;6.80;5.70;;;;;;;15.76;47.78;98420.13;8515498;27;20446;-75
2022/04/30 00:37:20;;;;;;;9.83;6.17;;;;;;;15.78;47.43;98420.03;8514937;27;20539;-75
2022/04/30 00:41:23;;;;;;;10.90;5.43;;;;;;;15.72;47.10;98423.78;8515045;27;20236;-75
2022/04/30 00:45:27;;;;;;;7.93;5.40;;;;;;;15.67;46.65;98425.00;8514583;27;20228;-75
2022/04/30 00:49:32;;;;;;;5.80;4.90;;;;;;;15.67;47.73;98415.41;8498142;27;20225;-75
2022/04/30 00:53:35;;;;;;;8.50;5.57;;;;;;;15.59;47.18;98405.41;8498277;27;20231;-75
2022/04/30 00:57:44;;;;;;;9.77;5.83;;;;;;;15.53;47.58;98404.91;8497934;27;20511;-75
2022/04/30 01:01:50;;;;;;;7.97;5.87;;;;;;;15.55;46.97;98405.66;8497471;27;20539;-75
2022/04/30 01:05:55;;;;;;;7.83;5.40;;;;;;;15.53;47.18;98400.53;8497690;27;20233;-75
2022/04/30 01:09:58;;;;;;;7.63;5.90;;;;;;;15.54;47.67;98396.16;8497395;27;20233;-75
2022/04/30 01:14:01;;;;;;;6.03;5.43;;;;;;;15.53;47.48;98392.69;8497521;27;20233;-75
2022/04/30 01:18:05;;;;;;;7.00;5.90;;;;;;;15.49;46.33;98391.19;8497437;27;20233;-75
2022/04/30 01:22:11;;;;;;;10.37;6.20;;;;;;;15.56;45.54;98389.91;8497746;27;20293;-75
2022/04/30 01:26:17;;;;;;;6.50;5.77;;;;;;;15.60;45.89;98380.97;8500977;27;20421;-75
2022/04/30 01:30:20;;;;;;;9.70;6.03;;;;;;;15.55;45.88;98375.16;8504649;27;20288;-75
2022/04/30 01:38:43;;;;;;;6.83;6.13;;;;;;;15.58;46.73;98377.63;8487324;28;20245;-75
2022/04/30 01:42:48;;;;;;;6.70;5.80;;;;;;;15.61;46.36;98376.59;8487171;28;20233;-75
2022/04/30 01:46:51;;;;;;;8.40;6.30;;;;;;;15.58;47.08;98375.00;8487102;28;20244;-75
2022/04/30 01:50:54;;;;;;;8.77;6.03;;;;;;;15.55;46.99;98372.56;8486830;28;20236;-76
2022/04/30 01:54:58;;;;;;;8.77;6.30;;;;;;;15.45;47.88;98364.44;8486700;28;20230;-75
2022/04/30 01:59:02;;;;;;;7.60;6.33;;;;;;;15.38;48.24;98363.13;8486868;28;20548;-75
2022/04/30 02:03:08;;;;;;;9.43;6.43;;;;;;;15.36;49.00;98364.97;8486257;27;20233;-75
2022/04/30 02:07:11;;;;;;;9.07;6.73;;;;;;;15.33;48.86;98362.53;8486024;27;20240;-75
2022/04/30 02:11:15;;;;;;;7.03;6.20;;;;;;;15.31;48.78;98355.75;8486077;28;20241;-75
2022/04/30 02:15:20;;;;;;;7.47;6.63;;;;;;;15.26;49.35;98355.97;8486037;27;20233;-75
2022/04/30 02:19:24;;;;;;;9.90;7.13;;;;;;;15.25;48.92;98349.94;8502793;27;20248;-75
2022/04/30 02:23:27;;;;;;;9.23;6.73;;;;;;;15.18;49.34;98342.53;8502918;27;20233;-75
2022/04/30 02:27:33;;;;;;;7.97;7.10;;;;;;;15.17;49.76;98335.63;8503032;27;20233;-75
2022/04/30 02:31:37;;;;;;;8.20;7.40;;;;;;;15.17;49.36;98341.72;8502729;27;20236;-75
2022/04/30 02:35:43;;;;;;;7.93;7.07;;;;;;;15.19;49.67;98337.25;8502356;27;20244;-75
2022/04/30 02:39:47;;;;;;;9.27;7.10;;;;;;;15.14;49.87;98333.22;8501565;27;20229;-75
2022/04/30 02:43:50;;;;;;;7.57;6.87;;;;;;;15.09;50.21;98333.47;8502351;27;20233;-75
2022/04/30 02:47:56;;;;;;;13.07;7.30;;;;;;;15.08;50.59;98329.19;8502323;27;20237;-75
2022/04/30 02:51:59;;;;;;;8.13;6.73;;;;;;;15.09;50.30;98327.41;8502626;27;20240;-75
2022/04/30 02:56:02;;;;;;;8.63;7.07;;;;;;;14.99;50.64;98329.72;8502262;27;20233;-75
2022/04/30 03:00:06;;;;;;;8.73;6.67;;;;;;;14.98;50.63;98326.28;8502130;27;20256;-75
2022/04/30 03:04:11;;;;;;;9.50;7.00;;;;;;;14.91;50.72;98322.31;8501922;27;20230;-75
2022/04/30 03:08:15;;;;;;;7.67;6.53;;;;;;;14.97;50.20;98321.97;8501772;27;20234;-76
2022/04/30 03:12:18;;;;;;;6.80;6.00;;;;;;;14.88;48.84;98309.44;8501436;27;20237;-75
2022/04/30 03:25:16;;;;;;;8.97;6.40;;;;;;;14.87;49.26;98307.78;8380947;28;20234;-75
2022/04/30 03:29:20;;;;;;;9.10;6.70;;;;;;;14.86;49.19;98306.09;8483779;28;20229;-75
2022/04/30 03:33:23;;;;;;;7.33;6.57;;;;;;;14.74;49.66;98304.19;8491637;27;20222;-75
2022/04/30 03:37:27;;;;;;;7.77;6.97;;;;;;;14.85;49.94;98299.22;8483319;27;20261;-75
2022/04/30 03:41:30;;;;;;;8.47;6.90;;;;;;;14.77;50.60;98296.16;8483322;28;20235;-75
2022/04/30 03:45:34;;;;;;;9.10;6.90;;;;;;;14.73;50.60;98299.88;8483539;28;20236;-75
2022/04/30 03:49:37;;;;;;;8.47;6.77;;;;;;;14.76;50.74;98291.91;8482158;28;20429;-75
2022/04/30 03:53:42;;;;;;;8.10;7.23;;;;;;;14.79;50.34;98297.78;8483343;27;20302;-75
2022/04/30 03:57:45;;;;;;;9.80;7.27;;;;;;;14.78;50.39;98293.47;8482915;27;20229;-75
2022/04/30 04:01:48;;;;;;;11.13;7.87;;;;;;;14.62;49.18;98290.91;8482884;28;20226;-75
2022/04/30 04:05:51;;;;;;;8.50;7.27;;;;;;;14.46;49.04;98280.44;8483030;28;20236;-75
2022/04/30 04:09:55;;;;;;;9.10;7.10;;;;;;;14.64;48.87;98288.19;8482690;27;20247;-75
2022/04/30 04:18:18;;;;;;;8.93;7.10;;;;;;;14.71;48.23;98289.53;8482073;28;20240;-75
2022/04/30 04:22:21;;;;;;;7.07;6.37;;;;;;;14.69;48.89;98293.16;8481901;28;20229;-75
2022/04/30 04:26:25;;;;;;;7.97;6.73;;;;;;;14.70;49.83;98294.81;8481356;28;20229;-75
2022/04/30 04:30:30;;;;;;;7.90;6.90;;;;;;;14.64;50.71;98294.25;8481502;28;20259;-75
2022/04/30 04:34:33;;;;;;;9.93;6.90;;;;;;;14.72;50.24;98290.41;8481431;28;20233;-75
2022/04/30 04:38:36;;;;;;;10.53;6.60;;;;;;;14.77;49.94;98291.78;8481665;27;20237;-75
2022/04/30 04:42:41;;;;;;;10.23;6.40;;;;;;;14.74;49.26;98304.19;8481521;28;20244;-75
2022/04/30 04:46:45;;;;;;;8.30;6.97;;;;;;;14.82;50.36;98300.19;8481338;28;20232;-75
2022/04/30 04:50:48;;;;;;;9.60;7.50;;;;;;;14.72;50.58;98303.44;8481249;27;20225;-75
2022/04/30 04:54:51;;;;;;;8.50;7.10;;;;;;;14.71;50.51;98296.53;8481315;27;20233;-76
2022/04/30 04:58:55;;;;;;;9.47;7.40;;;;;;;14.74;49.75;98302.41;8481281;28;20428;-75
2022/04/30 05:02:58;;;;;;;7.80;7.00;;;;;;;14.85;50.09;98304.44;8480611;28;20237;-75
2022/04/30 05:07:02;;;;;;;8.80;7.00;;;;;;;14.84;50.41;98315.75;8480960;28;20234;-75
2022/04/30 05:11:05;;;;;;;12.40;7.33;;;;;;;14.84;50.63;98323.59;8480638;28;20427;-75
2022/04/30 05:15:11;;;;;;;9.10;6.73;;;;;;;14.79;50.36;98325.59;8480935;28;20429;-75
2022/04/30 05:19:13;;;;;;;7.63;6.83;;;;;;;14.89;50.28;98336.34;8480729;28;20239;-75
2022/04/30 05:23:17;;;;;;;7.30;6.43;;;;;;;14.88;49.66;98338.13;8480480;28;20262;-75
2022/04/30 05:27:20;;;;;;;7.00;5.80;;;;;;;14.91;49.80;98351.00;8480769;28;20284;-75
2022/04/30 05:31:24;;;;;;;8.57;6.00;;;;;;;15.03;49.72;98357.28;8496994;27;20527;-75
2022/04/30 05:35:27;;;;;;;9.20;6.60;;;;;;;15.01;49.28;98351.31;8497307;27;20247;-75
2022/04/30 05:39:30;;;;;;;20.23;7.17;;;;;;;15.10;48.94;98353.41;8497137;27;20532;-75
2022/04/30 05:43:33;;;;;;;12.03;6.50;;;;;;;15.14;48.88;98354.94;8497181;27;20638;-75
2022/04/30 05:47:38;;;;;;;8.93;6.10;;;;;;;15.09;48.99;98362.16;8496928;27;20237;-75
2022/04/30 05:51:45;;;;;;;10.77;6.77;;;;;;;15.14;49.19;98369.75;8496910;27;20225;-75
2022/04/30 05:55:49;;;;;;;8.07;6.20;;;;;;;15.14;49.37;98372.34;8497176;27;20234;-75
2022/04/30 05:59:52;;;;;;;11.93;6.83;;;;;;;15.24;49.35;98373.50;8497097;27;20232;-75
2022/04/30 06:03:56;;;;;;;10.27;6.40;;;;;;;15.32;49.03;98373.91;8496921;27;20229;-75
2022/04/30 06:07:59;;;;;;;7.80;6.40;;;;;;;15.57;48.90;98377.69;8497057;27;20260;-75
2022/04/30 06:12:02;;;;;;;10.50;6.63;;;;;;;15.64;48.53;98384.25;8497700;27;20534;-75
2022/04/30 06:16:05;;;;;;;9.73;6.77;;;;;;;15.86;47.67;98389.09;8503259;27;20235;-75
2022/04/30 06:20:12;;;;;;;9.23;6.43;;;;;;;16.10;46.49;98376.31;8503118;27;20277;-75
2022/04/30 06:24:15;;;;;;;11.33;7.13;;;;;;;15.92;46.74;98380.06;8503086;27;20232;-75
2022/04/30 06:28:18;;;;;;;10.67;7.47;;;;;;;16.17;45.79;98385.47;8502716;27;20232;-75
2022/04/30 06:32:21;;;;;;;10.93;8.30;;;;;;;16.19;46.37;98381.00;8502588;27;20251;-75
2022/04/30 06:36:25;;;;;;;10.83;7.33;;;;;;;16.23;46.92;98386.88;8502325;27;20232;-75
2022/04/30 06:40:28;;;;;;;8.17;7.30;;;;;;;16.23;45.90;98379.88;8502414;27;20243;-76
2022/04/30 06:44:31;;;;;;;8.90;7.33;;;;;;;16.23;45.82;98379.03;8502294;27;20228;-76
2022/04/30 06:48:34;;;;;;;11.63;7.43;;;;;;;16.13;45.54;98376.16;8501871;27;20248;-74
2022/04/30 06:57:07;;;;;;;12.87;7.67;;;;;;;16.05;46.20;98382.75;8501929;27;20229;-74
2022/04/30 06:57:08;;;;;;;14.17;7.67;;;;;;;16.23;46.30;98387.72;8502002;27;20247;-75
2022/04/30 07:01:26;;;;;;;11.10;7.83;;;;;;;16.19;45.57;98390.63;8501923;27;20233;-75
2022/04/30 07:05:29;;;;;;;9.10;7.83;;;;;;;16.10;45.40;98386.78;8484227;27;20229;-75
2022/04/30 07:09:34;;;;;;;9.87;7.70;;;;;;;16.28;45.33;98391.81;8484455;27;20244;-75
2022/04/30 07:13:38;;;;;;;10.20;7.87;;;;;;;16.46;45.86;98388.09;8484177;28;20240;-74
2022/04/30 07:17:41;;;;;;;14.03;7.97;;;;;;;16.54;45.42;98387.59;8484079;28;20233;-75
2022/04/30 07:21:44;;;;;;;9.40;7.53;;;;;;;16.90;44.89;98388.88;8484120;28;20225;-75
2022/04/30 07:25:48;;;;;;;8.13;6.77;;;;;;;17.62;43.44;98393.84;8483939;28;20396;-75
2022/04/30 07:29:51;;;;;;;12.80;7.50;;;;;;;17.72;41.92;98394.91;8483863;28;20233;-75
2022/04/30 07:33:56;;;;;;;9.70;7.40;;;;;;;17.83;41.85;98396.81;8483767;28;20237;-74
2022/04/30 07:37:59;;;;;;;11.37;6.97;;;;;;;17.65;40.48;98393.63;8483614;27;20570;-75
2022/04/30 07:42:04;;;;;;;12.10;7.07;;;;;;;18.08;39.31;98399.47;8483391;27;20268;-75
2022/04/30 07:46:07;;;;;;;10.97;6.70;;;;;;;18.66;40.23;98394.59;8483309;28;20237;-76
2022/04/30 07:50:14;;;;;;;9.80;6.67;;;;;;;19.30;39.25;98385.66;8483462;28;20544;-76
2022/04/30 07:54:17;;;;;;;9.03;6.30;;;;;;;18.93;35.64;98389.19;8483277;27;20229;-76
2022/04/30 07:58:21;;;;;;;10.77;6.70;;;;;;;19.95;35.46;98394.03;8499879;27;20228;-76
2022/04/30 08:02:24;;;;;;;8.13;6.30;;;;;;;19.96;32.98;98391.28;8499663;27;20523;-75
2022/04/30 08:06:27;;;;;;;8.20;6.07;;;;;;;20.46;34.43;98383.91;8500047;27;20283;-75
2022/04/30 08:10:31;;;;;;;9.40;6.40;;;;;;;20.26;34.41;98384.63;8499251;27;20234;-75
2022/04/30 08:14:35;;;;;;;9.40;6.67;;;;;;;19.27;34.39;98383.28;8499635;27;20229;-76
2022/04/30 08:18:38;;;;;;;9.03;6.73;;;;;;;19.33;35.58;98370.53;8499328;27;20233;-76
2022/04/30 08:22:42;;;;;;;11.80;7.00;;;;;;;18.35;36.27;98378.41;8499414;27;21765;-76
2022/04/30 08:26:46;;;;;;;7.07;5.90;;;;;;;18.55;36.71;98381.41;8499002;27;20232;-76
2022/04/30 08:30:51;;;;;;;6.50;5.87;;;;;;;18.53;36.23;98381.50;8499401;27;20229;-76
2022/04/30 08:35:02;;;;;;;11.20;6.70;;;;;;;18.55;34.99;98382.22;8498602;27;20229;-76
2022/04/30 08:39:25;;;;;;;9.90;6.60;;;;;;;18.89;36.12;98377.25;8498278;27;20230;-75
2022/04/30 08:43:29;;;;;;;10.40;6.93;;;;;;;19.20;35.35;98376.81;8498715;27;20235;-76
2022/04/30 08:47:39;;;;;;;9.40;6.73;;;;;;;19.83;34.27;98372.16;8498632;27;20229;-75
2022/04/30 08:51:42;;;;;;;9.57;6.60;;;;;;;20.04;34.18;98370.50;8498557;27;20242;-75
2022/04/30 08:55:44;;;;;;;8.57;6.10;;;;;;;20.42;35.25;98373.75;8498347;27;20233;-75
2022/04/30 08:59:48;;;;;;;8.23;6.80;;;;;;;20.17;34.19;98367.78;8498043;27;20239;-75
2022/04/30 09:03:52;;;;;;;8.00;5.90;;;;;;;20.80;33.17;98369.91;8498090;27;20233;-75
2022/04/30 09:07:58;;;;;;;8.87;6.30;;;;;;;21.36;33.21;98372.38;8498066;27;20229;-75
2022/04/30 09:12:07;;;;;;;10.70;6.57;;;;;;;21.80;31.68;98365.22;8497912;27;20236;-75
2022/04/30 09:16:19;;;;;;;10.13;7.20;;;;;;;21.91;31.08;98372.22;8498136;27;20273;-75
2022/04/30 09:20:24;;;;;;;9.10;7.10;;;;;;;22.48;30.50;98372.66;8497393;27;20285;-75
2022/04/30 09:24:27;;;;;;;9.77;7.60;;;;;;;22.04;31.34;98374.66;8497887;27;20229;-75
2022/04/30 09:28:32;;;;;;;11.43;7.50;;;;;;;21.56;30.66;98367.28;8497563;27;20548;-75
2022/04/30 09:32:35;;;;;;;9.93;7.23;;;;;;;21.22;31.37;98365.59;8497394;27;20229;-75
2022/04/30 09:41:09;;;;;;;9.83;7.53;;;;;;;20.65;31.05;98361.44;8497342;27;20560;-76
2022/04/30 09:45:23;;;;;;;15.13;8.30;;;;;;;20.67;31.21;98351.63;8497435;27;20253;-75
2022/04/30 09:54:01;;;;;;;10.03;7.30;;;;;;;20.73;31.46;98359.03;8487107;27;20414;-76
2022/04/30 09:58:05;;;;;;;9.63;6.87;;;;;;;20.62;30.78;98352.00;8486774;28;20233;-76
2022/04/30 10:02:09;;;;;;;11.10;7.63;;;;;;;19.90;30.91;98357.59;8486693;27;20243;-76
2022/04/30 10:06:12;;;;;;;10.77;7.97;;;;;;;20.18;31.60;98350.19;8486782;28;20307;-75
2022/04/30 10:10:20;;;;;;;14.17;7.93;;;;;;;20.07;32.31;98354.50;8486596;28;20238;-75
2022/04/30 10:14:31;;;;;;;9.73;7.60;;;;;;;20.43;31.26;98349.13;8502637;27;20226;-75
2022/04/30 10:18:34;;;;;;;11.20;8.47;;;;;;;19.65;31.70;98351.53;8502849;27;20498;-75
2022/04/30 10:22:37;;;;;;;12.53;8.27;;;;;;;19.96;31.17;98351.03;8502880;27;20238;-75
2022/04/30 10:26:58;;;;;;;9.43;7.03;;;;;;;20.32;31.58;98352.59;8503039;27;20426;-75
2022/04/30 10:31:03;;;;;;;10.30;6.67;;;;;;;20.35;32.35;98344.44;8502993;27;20238;-76
2022/04/30 10:35:06;;;;;;;11.53;7.27;;;;;;;20.37;34.13;98345.19;8502506;27;20231;-76
2022/04/30 10:39:19;;;;;;;16.53;6.40;;;;;;;20.87;33.02;98350.03;8502481;27;20233;-75
2022/04/30 10:43:31;;;;;;;8.60;5.77;;;;;;;21.42;33.38;98348.16;8501966;27;20234;-75
2022/04/30 10:47:35;;;;;;;8.13;5.77;;;;;;;21.52;33.27;98353.53;8502204;27;20532;-75
2022/04/30 10:51:40;;;;;;;9.43;6.80;;;;;;;21.29;32.87;98343.06;8502261;27;20240;-75
2022/04/30 10:55:44;;;;;;;12.47;7.40;;;;;;;21.30;34.94;98338.63;8502137;27;20436;-75
2022/04/30 10:59:58;;;;;;;9.97;7.23;;;;;;;21.43;32.79;98341.09;8501522;27;20254;-76
2022/04/30 11:04:02;;;;;;;11.03;6.93;;;;;;;21.25;34.18;98336.38;8501719;27;20241;-75
2022/04/30 11:08:05;;;;;;;11.23;7.47;;;;;;;20.81;33.95;98330.31;8501638;27;20241;-75
2022/04/30 11:12:13;;;;;;;8.83;5.93;;;;;;;21.05;34.25;98330.09;8501569;27;20235;-76
2022/04/30 11:16:29;;;;;;;14.23;6.57;;;;;;;20.80;33.29;98326.00;8483778;28;20299;-74
2022/04/30 11:20:32;;;;;;;8.20;5.77;;;;;;;20.93;34.85;98328.47;8483891;28;20239;-75
2022/04/30 11:24:37;;;;;;;6.67;5.97;;;;;;;20.89;35.58;98324.44;8484224;27;20230;-75
2022/04/30 11:28:40;;;;;;;8.47;7.03;;;;;;;20.74;35.66;98321.25;8484197;27;20551;-76
2022/04/30 11:32:48;;;;;;;7.83;7.03;;;;;;;21.08;35.04;98311.44;8483789;28;20252;-75
2022/04/30 11:36:52;;;;;;;10.80;7.47;;;;;;;21.22;34.80;98314.72;8483677;27;20232;-75
2022/04/30 11:41:03;;;;;;;9.37;7.67;;;;;;;21.50;33.59;98308.03;8483643;28;20243;-76
2022/04/30 11:45:07;;;;;;;10.20;7.20;;;;;;;21.93;33.40;98298.28;8483340;28;20230;-76
2022/04/30 11:49:13;;;;;;;8.60;6.83;;;;;;;21.92;32.54;98301.88;8483281;28;20540;-76
2022/04/30 11:53:37;;;;;;;11.23;7.60;;;;;;;21.71;31.98;98294.00;8482656;28;20229;-76
2022/04/30 11:57:42;;;;;;;8.57;6.40;;;;;;;21.69;31.41;98296.78;8482952;28;20294;-75
2022/04/30 12:01:45;;;;;;;7.97;6.53;;;;;;;21.64;31.49;98305.06;8482939;28;20417;-76
2022/04/30 12:05:53;;;;;;;7.63;6.73;;;;;;;21.58;31.40;98302.13;8482659;27;20232;-76
2022/04/30 12:09:56;;;;;;;9.80;6.53;;;;;;;21.66;30.82;98297.03;8481349;28;20335;-76
2022/04/30 12:14:00;;;;;;;9.03;6.20;;;;;;;21.62;31.55;98299.06;8482294;28;20230;-75
2022/04/30 12:26:58;;;;;;;8.47;6.40;;;;;;;20.83;31.95;98280.19;8482364;28;20400;-75
2022/04/30 12:31:01;;;;;;;12.73;5.90;;;;;;;20.62;32.54;98282.75;8482131;28;20240;-76
2022/04/30 12:35:04;;;;;;;7.90;5.70;;;;;;;20.60;32.83;98274.13;8481845;28;20248;-76
2022/04/30 12:39:08;;;;;;;8.20;6.37;;;;;;;20.37;33.28;98275.94;8481765;27;20410;-76
2022/04/30 12:43:12;;;;;;;8.80;5.93;;;;;;;20.20;33.75;98280.78;8481883;28;20238;-75
2022/04/30 12:47:15;;;;;;;8.60;5.57;;;;;;;20.12;34.80;98285.78;8481403;28;20237;-76
2022/04/30 12:51:19;;;;;;;7.07;6.00;;;;;;;20.04;34.76;98301.31;8481664;28;20233;-76
2022/04/30 12:55:24;;;;;;;7.43;4.30;;;;;;;19.40;35.38;98310.53;8481002;28;20234;-75
2022/04/30 12:59:27;;;;;;;4.87;3.77;;;;;;;19.05;36.54;98305.25;8481347;28;20238;-75
2022/04/30 13:03:31;;;;;;;4.73;3.50;;;;;;;19.06;37.12;98296.47;8480748;28;20238;-75
2022/04/30 13:07:34;;;;;;;7.73;3.73;;;;;;;18.79;38.12;98296.63;8480848;28;20271;-76
2022/04/30 13:15:59;;;;;;;4.03;3.57;;;;;;;19.25;38.12;98282.81;8480758;28;20228;-76
2022/04/30 13:20:04;;;;;;;4.07;3.60;;;;;;;19.68;37.39;98275.09;8480677;28;20514;-76
2022/04/30 13:24:08;;;;;;;3.50;3.03;;;;;;;19.81;36.62;98275.03;8480511;28;20231;-76
2022/04/30 13:28:12;;;;;;;6.70;3.50;;;;;;;19.85;37.42;98271.22;8480819;28;20241;-76
2022/04/30 13:32:15;;;;;;;3.63;3.10;;;;;;;19.95;37.21;98273.94;8480568;28;20315;-76
2022/04/30 13:36:20;;;;;;;4.67;3.37;;;;;;;19.82;37.60;98284.59;8480563;28;20229;-76
2022/04/30 13:40:23;;;;;;;6.13;3.67;;;;;;;19.57;37.74;98287.38;8480083;28;20227;-74
2022/04/30 13:44:27;;;;;;;4.07;3.27;;;;;;;19.38;38.48;98298.44;8480549;28;20425;-74
2022/04/30 13:48:31;;;;;;;3.17;2.87;;;;;;;19.28;38.53;98295.69;8480228;28;20226;-74
2022/04/30 13:52:34;;;;;;;3.93;3.20;;;;;;;19.45;39.22;98292.63;8480220;28;20239;-74
2022/04/30 13:56:39;;;;;;;5.67;3.40;;;;;;;19.29;40.14;98292.94;8480201;28;20227;-75
2022/04/30 14:00:43;;;;;;;4.03;3.47;;;;;;;19.40;40.46;98291.28;8480355;28;20247;-75
2022/04/30 14:04:46;;;;;;;4.20;3.80;;;;;;;19.05;39.92;98292.13;8480385;28;20408;-75
2022/04/30 14:08:49;;;;;;;4.10;3.70;;;;;;;18.99;40.51;98288.19;8480109;28;20527;-75
2022/04/30 14:12:52;;;;;;;5.40;4.90;;;;;;;18.91;40.68;98285.28;8480067;28;20421;-75
2022/04/30 14:16:56;;;;;;;15.07;11.80;;;;;;;18.43;42.29;98291.34;8479863;28;20236;-75
2022/04/30 14:21:03;;;;;;;9.77;8.77;;;;;;;18.07;42.85;98295.59;8479915;28;20432;-75
2022/04/30 14:25:08;;;;;;;12.30;8.97;;;;;;;17.80;43.13;98285.22;8479919;28;20229;-75
2022/04/30 14:29:12;;;;;;;8.93;7.73;;;;;;;18.07;42.27;98290.34;8479916;28;20229;-75
2022/04/30 14:33:16;;;;;;;9.30;7.93;;;;;;;18.24;42.81;98288.31;8480892;28;20230;-75
2022/04/30 14:37:19;;;;;;;13.73;12.33;;;;;;;17.75;44.26;98288.13;8485701;28;20563;-75
2022/04/30 14:41:22;;;;;;;10.43;9.27;;;;;;;17.95;43.44;98265.84;8485104;28;20237;-76
2022/04/30 14:45:26;;;;;;;9.23;8.13;;;;;;;18.32;44.24;98265.88;8485388;28;20233;-75
2022/04/30 14:49:30;;;;;;;9.60;8.23;;;;;;;18.33;45.01;98248.34;8485421;28;20237;-75
2022/04/30 14:53:33;;;;;;;10.43;7.90;;;;;;;18.34;46.00;98236.94;8485308;28;20429;-75
2022/04/30 14:57:36;;;;;;;8.83;7.60;;;;;;;18.42;45.73;98228.50;8485087;28;20233;-75
2022/04/30 15:01:39;;;;;;;9.60;7.37;;;;;;;18.47;44.78;98215.91;8484888;27;20243;-75
2022/04/30 15:05:44;;;;;;;10.40;8.60;;;;;;;18.36;45.39;98203.56;8484876;27;20229;-75
2022/04/30 15:09:47;;;;;;;9.07;7.47;;;;;;;18.72;45.38;98201.81;8484570;28;20239;-75
2022/04/30 15:13:57;;;;;;;9.07;8.17;;;;;;;18.72;43.85;98213.16;8501885;27;20225;-75
2022/04/30 15:18:01;;;;;;;9.80;7.87;;;;;;;19.16;43.91;98207.34;8501713;27;20234;-75
2022/04/30 15:22:05;;;;;;;8.67;7.47;;;;;;;18.95;42.30;98215.88;8501404;27;20264;-75
2022/04/30 15:26:08;;;;;;;8.77;7.37;;;;;;;18.78;41.84;98211.84;8501402;27;20236;-75
2022/04/30 15:30:12;;;;;;;7.63;6.83;;;;;;;19.15;42.27;98214.38;8501363;27;20233;-75
2022/04/30 15:34:14;;;;;;;10.70;6.50;;;;;;;19.52;41.68;98219.47;8501053;27;20242;-75
2022/04/30 15:38:19;;;;;;;7.73;6.20;;;;;;;19.63;42.04;98218.63;8500872;27;20232;-75
2022/04/30 15:42:26;;;;;;;8.30;6.07;;;;;;;19.54;41.52;98225.44;8483167;28;20267;-74
2022/04/30 15:55:11;;;;;;;8.20;5.70;;;;;;;18.69;44.61;98244.00;8483548;28;20253;-75
2022/04/30 15:59:14;;;;;;;6.43;5.20;;;;;;;18.98;44.23;98255.00;8483409;28;20251;-75
2022/04/30 16:03:17;;;;;;;5.87;5.20;;;;;;;18.88;44.66;98251.41;8482843;27;20552;-75
2022/04/30 16:07:20;;;;;;;5.97;4.60;;;;;;;18.85;44.74;98256.84;8499781;27;20426;-75
2022/04/30 16:11:25;;;;;;;5.70;4.73;;;;;;;18.64;45.31;98260.09;8482162;27;20415;-74
2022/04/30 16:15:28;;;;;;;6.13;4.50;;;;;;;18.21;45.04;98265.78;8482643;27;20554;-75
2022/04/30 16:19:32;;;;;;;6.30;5.10;;;;;;;18.20;45.12;98258.88;8482402;27;20236;-75
2022/04/30 16:23:35;;;;;;;7.60;5.23;;;;;;;18.03;44.34;98256.59;8482335;28;20330;-75
2022/04/30 16:27:39;;;;;;;7.97;5.80;;;;;;;17.67;45.56;98258.16;8482298;28;20230;-75
2022/04/30 16:31:42;;;;;;;6.00;5.40;;;;;;;17.62;45.64;98266.34;8482262;27;20536;-75
2022/04/30 16:35:47;;;;;;;6.20;5.60;;;;;;;17.50;45.99;98270.66;8481900;28;20225;-75
2022/04/30 16:39:50;;;;;;;5.90;5.30;;;;;;;17.53;45.33;98264.34;8481879;27;20233;-75
2022/04/30 16:44:00;;;;;;;6.50;5.00;;;;;;;17.58;45.40;98265.72;8481793;27;20248;-75
2022/04/30 16:48:03;;;;;;;6.00;5.40;;;;;;;17.50;45.70;98264.59;8481829;27;20230;-75
2022/04/30 16:52:22;;;;;;;7.10;5.07;;;;;;;17.54;45.38;98259.03;8481614;28;20225;-75
2022/04/30 17:01:09;;;;;;;4.67;4.10;;;;;;;17.69;46.02;98264.16;8481388;28;20229;-75
2022/04/30 17:05:13;;;;;;;6.83;6.00;;;;;;;17.51;46.93;98259.22;8481638;28;20416;-75
2022/04/30 17:09:16;;;;;;;5.90;5.40;;;;;;;17.27;46.73;98255.66;8480665;28;20247;-75
2022/04/30 17:13:19;;;;;;;6.53;5.67;;;;;;;17.23;46.25;98257.66;8481238;28;20252;-75
2022/04/30 17:17:23;;;;;;;13.00;11.50;;;;;;;17.23;46.29;98268.13;8480890;28;20255;-72
2022/04/30 17:21:26;;;;;;;28.40;17.47;;;;;;;17.26;46.88;98252.19;8480841;28;20561;-75
2022/04/30 17:25:31;;;;;;;7.70;7.00;;;;;;;17.40;46.34;98256.50;8480616;28;20232;-74
2022/04/30 17:29:37;;;;;;;6.10;5.60;;;;;;;17.05;46.88;98257.09;8480813;28;20243;-75
2022/04/30 17:38:02;;;;;;;5.50;4.00;;;;;;;17.13;47.15;98249.56;8480750;28;20233;-75
2022/04/30 17:42:06;;;;;;;11.47;8.10;;;;;;;17.21;46.50;98238.59;8480180;28;20237;-75
2022/04/30 17:46:11;;;;;;;14.73;10.67;;;;;;;17.14;46.83;98243.38;8497401;27;20233;-75
2022/04/30 17:50:15;;;;;;;5.63;4.33;;;;;;;17.16;46.73;98248.53;8497333;27;20230;-75
2022/04/30 17:54:18;;;;;;;5.73;4.80;;;;;;;17.15;46.86;98262.53;8497373;27;20236;-75
2022/04/30 17:58:24;;;;;;;5.20;4.70;;;;;;;17.06;46.63;98268.38;8497363;27;20240;-75
2022/04/30 18:02:29;;;;;;;5.23;4.00;;;;;;;17.06;46.77;98277.09;8479532;28;20237;-75
2022/04/30 18:06:34;;;;;;;4.13;3.73;;;;;;;17.00;46.89;98288.78;8480174;28;20233;-75
2022/04/30 18:10:37;;;;;;;4.10;3.70;;;;;;;17.08;46.88;98287.47;8485058;27;20241;-75
2022/04/30 18:14:42;;;;;;;4.13;3.73;;;;;;;16.98;47.25;98293.28;8486445;28;20509;-75
2022/04/30 18:18:47;;;;;;;6.10;3.90;;;;;;;17.01;47.24;98305.31;8486204;27;20232;-75
2022/04/30 18:22:51;;;;;;;4.67;3.90;;;;;;;16.93;47.33;98307.59;8486057;27;20236;-75
2022/04/30 18:26:54;;;;;;;5.60;4.30;;;;;;;16.90;47.27;98311.25;8486156;28;20229;-76
2022/04/30 18:30:58;;;;;;;21.97;19.67;;;;;;;16.85;47.73;98315.09;8485864;28;20237;-76
2022/04/30 18:35:01;;;;;;;20.87;18.67;;;;;;;16.86;48.10;98320.22;8485869;28;20409;-75
2022/04/30 18:39:07;;;;;;;13.57;12.17;;;;;;;16.82;48.24;98331.81;8485953;28;20229;-76
2022/04/30 18:43:11;;;;;;;11.07;9.07;;;;;;;16.73;48.37;98329.75;8485346;28;20237;-75
2022/04/30 18:47:14;;;;;;;12.20;10.77;;;;;;;16.65;48.87;98337.25;8485446;27;20234;-76
2022/04/30 18:51:19;;;;;;;12.17;10.90;;;;;;;16.52;48.65;98343.25;8485430;28;20233;-77
2022/04/30 19:04:08;;;;;;;7.70;5.00;;;;;;;16.48;49.14;98333.94;8501845;27;20330;-76
2022/04/30 19:08:11;;;;;;;7.40;6.13;;;;;;;16.27;49.67;98335.28;8502057;27;20600;-77
2022/04/30 19:12:16;;;;;;;7.37;5.57;;;;;;;16.28;49.43;98336.94;8501768;27;20247;-76
2022/04/30 19:16:19;;;;;;;6.37;4.93;;;;;;;16.32;49.99;98346.28;8501768;27;20322;-76
2022/04/30 19:20:22;;;;;;;5.63;4.80;;;;;;;16.36;49.80;98356.44;8500664;27;20226;-76
2022/04/30 19:24:25;;;;;;;5.83;5.23;;;;;;;16.37;49.88;98365.13;8501383;27;20338;-76
2022/04/30 19:28:30;;;;;;;5.57;5.03;;;;;;;16.30;49.99;98374.28;8501161;27;20240;-76
2022/04/30 19:32:33;;;;;;;5.17;4.70;;;;;;;16.22;49.95;98378.22;8501097;27;20238;-76
2022/04/30 19:36:37;;;;;;;6.87;4.93;;;;;;;16.20;50.70;98381.81;8500890;27;20233;-75
2022/04/30 19:40:40;;;;;;;6.20;5.60;;;;;;;16.24;50.42;98378.13;8500851;27;20263;-74
2022/04/30 19:44:45;;;;;;;6.53;5.40;;;;;;;16.26;50.27;98383.22;8500632;27;20291;-75
2022/04/30 19:48:48;;;;;;;5.73;5.23;;;;;;;16.15;50.39;98383.91;8500715;27;20232;-75
2022/04/30 19:52:55;;;;;;;6.80;5.23;;;;;;;16.14;50.65;98390.88;8500350;27;20243;-75
2022/04/30 19:56:58;;;;;;;7.67;5.30;;;;;;;16.15;50.79;98389.97;8500377;27;20239;-77
2022/04/30 20:01:03;;;;;;;7.30;5.27;;;;;;;16.10;51.07;98388.56;8500324;27;20433;-76
2022/04/30 20:05:08;;;;;;;5.50;4.97;;;;;;;16.06;51.18;98387.88;8500067;27;20241;-76
2022/04/30 20:09:12;;;;;;;5.27;4.87;;;;;;;15.98;51.49;98384.91;8500113;27;20247;-76
2022/04/30 20:17:38;;;;;;;6.70;5.73;;;;;;;15.91;51.93;98378.38;8499392;27;20281;-75